Time;durP1;ratioP1;P1;durP2;ratioP2;P2;SDS_P1;SDS_P2;PMS_P1;PMS_P2;Temp;Humidity;BMP_temperature;BMP_pressure;BME280_temperature;BME280_humidity;BME280_pressure;Samples;Min_cycle;Max_cycle;Signal;HPM_P1;HPM_P2
2020/12/08 00:01:11;;;;;;;6.47;5.78;;;;;;;4.94;87.59;93973.92;834860;71;30345;-78
2020/12/08 00:16:19;;;;;;;3.33;3.02;;;;;;;4.87;87.38;93990.33;816167;72;32738;-78
2020/12/08 00:31:15;;;;;;;3.62;3.25;;;;;;;4.86;87.85;94004.35;834308;71;33193;-78
2020/12/08 00:46:37;;;;;;;3.12;2.92;;;;;;;4.87;87.37;94002.55;809832;72;33205;-77
2020/12/08 01:16:45;;;;;;;5.83;4.78;;;;;;;4.91;87.72;94029.58;809522;72;33232;-78
2020/12/08 01:31:54;;;;;;;6.65;5.87;;;;;;;4.94;87.35;94022.54;834769;71;31938;-78
2020/12/08 01:46:43;;;;;;;6.47;5.87;;;;;;;4.94;87.48;94019.41;809898;72;32828;-78
2020/12/08 02:01:28;;;;;;;6.80;6.05;;;;;;;5.01;88.06;94018.63;835057;71;33251;-77
2020/12/08 02:16:36;;;;;;;6.80;5.92;;;;;;;5.04;87.38;94014.72;809948;72;32734;-77
2020/12/08 02:31:37;;;;;;;9.55;7.70;;;;;;;5.01;87.97;94025.66;811100;72;32756;-77
2020/12/08 03:01:34;;;;;;;14.00;9.23;;;;;;;4.85;87.63;94004.64;809820;72;33285;-78
2020/12/08 03:46:29;;;;;;;16.27;10.68;;;;;;;4.29;90.53;94026.23;828290;71;33290;-79
2020/12/08 04:01:52;;;;;;;18.92;12.28;;;;;;;4.49;89.99;94035.85;813340;72;32801;-78
2020/12/08 04:16:17;;;;;;;16.10;10.90;;;;;;;4.61;88.92;94057.92;828854;71;33183;-78
2020/12/08 04:31:30;;;;;;;16.85;9.95;;;;;;;4.69;88.49;94059.22;834715;71;32800;-76
2020/12/08 04:46:12;;;;;;;16.55;9.78;;;;;;;4.74;88.54;94076.09;829762;71;31416;-77
2020/12/08 05:31:36;;;;;;;18.42;12.65;;;;;;;4.70;87.69;94088.05;799264;72;32940;-79
2020/12/08 06:01:49;;;;;;;11.53;9.25;;;;;;;4.90;87.37;94089.86;828344;71;33243;-76
2020/12/08 06:16:21;;;;;;;18.75;12.58;;;;;;;5.08;86.11;94115.08;830081;71;30318;-77
2020/12/08 06:46:23;;;;;;;22.00;13.28;;;;;;;5.15;86.57;94142.88;826060;71;32832;-77
2020/12/08 07:01:19;;;;;;;18.57;12.33;;;;;;;5.37;86.00;94160.30;834599;71;33780;-79
2020/12/08 07:16:23;;;;;;;30.40;18.07;;;;;;;5.46;84.97;94168.34;834962;71;32809;-78
2020/12/08 07:46:34;;;;;;;26.60;14.95;;;;;;;5.60;84.12;94195.91;834670;71;32719;-78
2020/12/08 08:01:42;;;;;;;24.82;16.57;;;;;;;5.71;83.14;94185.70;816500;72;32766;-77
2020/12/08 08:16:14;;;;;;;29.18;17.65;;;;;;;5.78;82.67;94207.05;829439;71;32451;-78
2020/12/08 08:46:50;;;;;;;32.93;21.00;;;;;;;5.49;84.55;94227.64;815644;73;32852;-80
2020/12/08 09:01:30;;;;;;;36.15;22.25;;;;;;;5.60;84.07;94224.00;832204;71;32703;-78
2020/12/08 09:16:12;;;;;;;34.63;22.48;;;;;;;6.21;83.09;94214.50;834726;71;32580;-77
2020/12/08 09:31:42;;;;;;;52.80;33.05;;;;;;;6.27;82.17;94196.50;779975;75;32888;-76
2020/12/08 09:46:42;;;;;;;48.98;30.52;;;;;;;6.34;82.35;94191.77;794562;73;32831;-78
2020/12/08 10:31:35;;;;;;;36.30;21.15;;;;;;;8.07;99.98;94184.13;806244;72;31916;-76
2020/12/08 10:46:42;;;;;;;53.90;34.80;;;;;;;9.15;74.14;94174.86;795637;72;32417;-77
2020/12/08 11:16:50;;;;;;;42.55;26.40;;;;;;;7.43;77.60;94182.16;816992;72;31877;-77
2020/12/08 11:31:36;;;;;;;47.23;27.95;;;;;;;8.35;77.60;94177.77;780187;75;32012;-78
2020/12/08 11:46:27;;;;;;;41.20;25.82;;;;;;;7.74;77.53;94174.03;833915;71;31760;-79
2020/12/08 12:16:28;;;;;;;40.30;24.23;;;;;;;7.42;78.14;94163.63;833774;71;31759;-77
2020/12/08 13:01:37;;;;;;;32.80;21.82;;;;;;;7.80;76.81;94148.11;780540;75;32579;-79
2020/12/08 13:16:42;;;;;;;31.62;21.95;;;;;;;7.41;77.03;94151.11;775133;75;32747;-77
2020/12/08 13:31:13;;;;;;;38.98;23.38;;;;;;;7.25;77.68;94144.48;835016;71;31525;-79
2020/12/08 13:46:38;;;;;;;42.67;26.87;;;;;;;7.22;78.09;94167.22;780054;75;32473;-77
2020/12/08 14:01:46;;;;;;;40.12;25.20;;;;;;;6.97;78.89;94166.34;800052;74;32059;-78
2020/12/08 15:16:44;;;;;;;76.95;43.08;;;;;;;6.12;83.16;94208.27;800958;73;32924;-77
2020/12/08 15:31:38;;;;;;;41.30;28.90;;;;;;;5.91;82.85;94206.23;794305;74;32846;-81
2020/12/08 15:46:24;;;;;;;22.37;17.15;;;;;;;5.69;82.60;94207.84;827991;71;33239;-77
2020/12/08 16:01:46;;;;;;;31.75;21.02;;;;;;;5.44;83.07;94216.48;780597;75;33052;-78
2020/12/08 16:16:12;;;;;;;28.00;18.57;;;;;;;5.27;83.34;94233.14;828593;71;30295;-79
2020/12/08 16:31:53;;;;;;;25.57;17.15;;;;;;;5.15;83.79;94229.98;780774;75;33135;-75
2020/12/08 16:46:39;;;;;;;36.25;23.18;;;;;;;4.91;83.93;94235.70;779835;75;33430;-79
2020/12/08 17:01:14;;;;;;;22.45;17.73;;;;;;;4.72;84.74;94241.12;817187;71;32061;-78
2020/12/08 17:16:39;;;;;;;37.38;23.18;;;;;;;4.60;85.71;94239.55;787834;75;32969;-80
2020/12/08 17:46:42;;;;;;;85.85;55.35;;;;;;;4.45;85.47;94274.56;780576;75;33475;-79
2020/12/08 18:01:12;;;;;;;110.42;63.48;;;;;;;4.29;85.18;94280.20;827955;71;31985;-77
2020/12/08 18:16:41;;;;;;;89.30;55.28;;;;;;;4.22;86.18;94291.35;780306;75;32903;-79
2020/12/08 18:31:22;;;;;;;94.67;51.48;;;;;;;4.33;86.70;94315.55;828186;71;32712;-79
2020/12/08 19:16:46;;;;;;;76.85;44.67;;;;;;;4.12;85.96;94305.05;787204;75;33454;-77
2020/12/08 19:31:23;;;;;;;69.27;42.35;;;;;;;4.06;86.08;94316.97;827799;71;33243;-77
2020/12/08 20:01:13;;;;;;;111.42;56.70;;;;;;;4.42;87.06;94329.63;835060;71;31988;-77
2020/12/08 20:16:45;;;;;;;57.30;34.88;;;;;;;4.78;92.33;94325.86;794039;74;32861;-79
2020/12/08 20:31:45;;;;;;;94.95;61.80;;;;;;;12.73;72.74;94336.39;793883;74;33490;-81
2020/12/08 20:46:24;;;;;;;104.20;64.72;;;;;;;9.85;68.05;94341.62;823281;71;32645;-78
2020/12/08 21:16:37;;;;;;;72.20;40.30;;;;;;;6.54;76.87;94336.84;794655;74;32981;-79
2020/12/08 21:31:30;;;;;;;73.05;38.35;;;;;;;6.01;79.19;94332.53;834594;71;33313;-79
2020/12/08 21:46:15;;;;;;;73.55;39.18;;;;;;;5.66;81.40;94326.78;836214;70;32045;-76
2020/12/08 22:01:23;;;;;;;74.12;41.18;;;;;;;5.47;82.13;94320.80;836054;71;32691;-79
2020/12/08 22:16:17;;;;;;;80.95;42.17;;;;;;;5.50;83.14;94326.02;828697;71;32772;-79
2020/12/08 22:31:28;;;;;;;60.65;36.68;;;;;;;5.45;83.09;94309.09;836110;71;32806;-77
2020/12/08 23:46:45;;;;;;;37.53;22.73;;;;;;;4.87;86.07;94298.88;813384;72;32821;-77
